Wildwood, NJ

6:14 PM EDT on March 27, 2015 (GMT -0400)
Millville Municipal | | Change Station
CLOSE
Current Station
Airport
Location: Millville,
Elevation: 82 ft
Nearby Weather Stations

Elev 82 ft 39.37 °N, 75.08 °W | Updated 20 minutes ago

Overcast
Overcast
45 °F
Feels Like 41 °F
N
8
Wind Variable Wind from NNW

Today
High -- | Low -- °F
--% Chance of Precip.
Yesterday
High -- | Low -- °F
Precip. -- in
6:52 AM 7:17 PM
First Quarter, 56% visible
Pressure 29.74 in
Visibility 10.0 miles
Clouds Mostly Cloudy 3900 ft
Overcast 9000 ft
Windchill 41 °F
Dew Point 33 °F
Humidity 63%
Rainfall 0.19 in
Snow Depth Not available.
UV 0 out of 12
Pollen 5.10 out of 12
Air Quality Not available.
Flu Activity Not available.
METAR KMIV 272154Z AUTO 33007KT 10SM BKN039 OVC090 07/01 A2974 RMK AO2 SLP069 T00720006

More Conditions Fewer Conditions

Pressure 29.74 in
Visibility 10.0 miles
Clouds Mostly Cloudy 3900 ft
Overcast 9000 ft
Windchill 41 °F
Dew Point 33 °F
Humidity 63%
Rainfall 0.19 in
Snow Depth Not available.
UV 0 out of 12
Pollen 5.10 out of 12
Air Quality Not available.
Flu Activity Not available.
METAR KMIV 272154Z AUTO 33007KT 10SM BKN039 OVC090 07/01 A2974 RMK AO2 SLP069 T00720006

More Conditions Fewer Conditions

Nowcast | as of 5:08 PM EDT on March 27, 2015

Light rain showers will continue to taper off through around 7 PM. Most rain will be light and only amount to a couple of hundredths of a inch in an hour.

×

10-Day Weather Forecast

Almanac

Astronomy

Mar. 27, 2015 Rise Set
Actual Time
Civil Twilight
Nautical Twilight
Astronomical Twilight
Moon
Length of Visible Light
Length of Day
Tomorrow will be .
, % of the Moon is Illuminated

Today's Extremes

State Highs State Lows

Community

WunderPhotos

Upload Photos

1,808,844 photos uploaded!

WunderBlogs® & News

Nearby

Air Quality

  Air Quality AQ Index Pollutant
Not available.

Snow Depth

Station Depth Elevation

Earthquake Activity

City Distance Mag. Time & Date
Minimum magnitude displayed is 2.5.

Coastal Water Temperatures

Place Temperature

Stations

Nearby Weather Stations

Station Location Temp. Windchill Dew Point Humidity Wind Precip. Elev Updated Type